Latest Weather Observations for Julia Creek

IDQ60801

Issued at 7:02 am EST Friday 1 July 2016 (issued every 30 minutes, with the page automatically refreshed every 10 minutes)

About weather observations | Map of weather stations | Latest weather observations for QLD | Other Formats
Station Details ID: 029058 Name: JULIA CREEK AIRPORT Lat: -20.67 Lon: 141.72 Height: 122.5 m
Data from the previous 72 hours. | See also: Recent months at Julia Creek
Date/Time
EST
Temp
°C
App
Temp
°C
Dew
Point
°C
Rel
Hum
%
Delta-T
°C
Wind Press
QNH
hPa
Press
MSL
hPa
Rain since
9am
mm
Dir  Spd
km/h
Gust
km/h
Spd
kts
Gust
kts
01/07:00am 7.6 3.8 -0.6 56 3.2 ESE 9 11 5 6 1021.8 1021.6 0.0
01/06:30am 7.7 3.9 -0.5 56 3.2 ENE 9 13 5 7 1021.3 1021.1 0.0
01/06:00am 8.5 4.7 -0.5 53 3.5 SE 9 9 5 5 1020.7 1020.5 0.0
01/05:30am 8.8 4.7 -0.5 52 3.7 SE 11 13 6 7 1020.2 1020.0 0.0
01/05:00am 9.2 5.0 -0.7 50 3.9 SE 11 15 6 8 1020.0 1019.8 0.0
01/04:30am 7.9 3.4 -0.6 55 3.3 SSE 13 15 7 8 1019.8 1019.6 0.0
01/04:00am 7.8 3.9 -1.4 52 3.5 SE 9 11 5 6 1019.5 1019.3 0.0
01/03:30am 9.6 5.4 -1.1 47 4.2 SSE 11 13 6 7 1019.4 1019.2 0.0
01/03:00am 9.3 5.1 -1.1 48 4.1 SSE 11 13 6 7 1019.4 1019.2 0.0
01/02:30am 9.0 4.7 -1.7 47 4.1 SE 11 13 6 7 1019.5 1019.3 0.0
01/02:00am 9.6 6.0 -2.0 44 4.4 SE 7 11 4 6 1019.6 1019.4 0.0
01/01:30am 10.9 6.2 -2.1 40 5.1 SSE 13 17 7 9 1019.8 1019.6 0.0
01/01:00am 11.5 6.7 -2.3 38 5.4 SSE 13 15 7 8 1020.0 1019.8 0.0
01/12:30am 10.1 5.3 -2.2 42 4.7 SSE 13 15 7 8 1019.9 1019.7 0.0
01/12:00am 10.0 5.5 -3.6 38 5.0 SSE 11 13 6 7 1019.9 1019.7 0.0
 
Date/Time
EST
Temp
°C
App
Temp
°C
Dew
Point
°C
Rel
Hum
%
Delta-T
°C
Wind Press
QNH
hPa
Press
MSL
hPa
Rain since
9am
mm
Dir  Spd
km/h
Gust
km/h
Spd
kts
Gust
kts
30/11:30pm 10.6 5.7 -3.8 36 5.4 SSE 13 13 7 7 1019.9 1019.7 0.0
30/11:00pm 11.1 6.1 -4.1 34 5.6 SSE 13 13 7 7 1020.0 1019.8 0.0
30/10:30pm 11.9 6.9 -4.7 31 6.1 SSE 13 15 7 8 1020.0 1019.8 0.0
30/10:00pm 14.1 9.0 -5.1 26 7.2 SSE 13 15 7 8 1020.1 1019.9 0.0
30/09:30pm 15.2 9.3 -5.2 24 7.8 SSE 17 19 9 10 1020.0 1019.8 0.0
30/09:00pm 13.8 7.6 -4.4 28 6.9 SSE 19 22 10 12 1019.7 1019.5 0.0
30/08:30pm 13.9 9.0 -3.8 29 6.8 SSE 13 15 7 8 1019.4 1019.2 0.0
30/08:00pm 14.0 9.1 -3.7 29 6.8 S 13 15 7 8 1019.4 1019.2 0.0
30/07:30pm 14.8 9.5 -3.5 28 7.2 S 15 15 8 8 1019.0 1018.7 0.0
30/07:00pm 15.8 10.5 -3.6 26 7.7 S 15 17 8 9 1018.5 1018.2 0.0
30/06:30pm 18.4 13.1 -3.7 22 9.0 SSW 15 15 8 8 1018.1 1017.8 0.0
30/06:00pm 22.3 18.8 -1.7 20 10.5 SSW 7 9 4 5 1018.0 1017.7 0.0
30/05:30pm 25.3 20.8 -3.2 15 12.5 SSW 11 15 6 8 1018.0 1017.7 0.0
30/05:00pm 26.5 21.5 -4.1 13 13.3 SW 13 19 7 10 1017.8 1017.5 0.0
30/04:30pm 26.9 22.7 -1.0 16 12.9 SSW 11 20 6 11 1017.7 1017.4 0.0
30/04:00pm 27.3 22.5 0.1 17 12.8 SW 15 28 8 15 1017.8 1017.5 0.0
30/03:30pm 27.3 22.6 0.9 18 12.6 WSW 15 22 8 12 1017.9 1017.6 0.0
30/03:00pm 27.4 24.2 3.2 21 12.0 WSW 9 22 5 12 1018.0 1017.7 0.0
30/02:30pm 26.9 23.4 3.4 22 11.7 WNW 11 24 6 13 1018.3 1018.0 0.0
30/02:00pm 26.8 22.4 4.6 24 11.3 WNW 17 26 9 14 1018.4 1018.1 0.0
30/01:30pm 26.7 22.4 5.1 25 11.1 NW 17 28 9 15 1018.7 1018.4 0.0
30/01:00pm 26.2 22.7 7.3 30 10.0 NW 15 26 8 14 1019.2 1018.9 0.0
30/12:30pm 25.3 21.8 7.0 31 9.6 NW 15 24 8 13 1019.8 1019.6 0.0
30/12:00pm 24.6 20.4 7.3 33 9.1 NNW 19 24 10 13 1020.4 1020.2 0.0
30/11:30am 23.8 19.6 7.4 35 8.6 N 19 28 10 15 1020.8 1020.6 0.0
30/11:00am 22.2 17.9 6.8 37 7.9 N 19 26 10 14 1021.2 1021.0 0.0
30/10:30am 21.1 16.0 6.2 38 7.5 N 22 28 12 15 1021.4 1021.2 0.0
30/10:00am 19.3 14.8 6.1 42 6.6 N 19 22 10 12 1021.8 1021.6 0.0
30/09:30am 16.0 13.7 2.8 41 6.0 NNE 4 11 2 6 1022.3 1022.1 0.0
30/09:00am 12.9 11.2 1.6 46 4.9 CALM 0 0 0 0 1022.3 1022.1 0.0
30/08:30am 9.5 5.9 0.7 54 3.6 ENE 9 13 5 7 1021.8 1021.6 0.0
30/08:00am 6.5 3.2 -0.2 62 2.6 ESE 7 9 4 5 1021.7 1021.5 0.0
30/07:30am 3.9 0.7 -0.3 74 1.6 SSE 6 9 3 5 1021.4 1021.2 0.0
30/07:00am 3.0 -0.3 -1.2 74 1.5 SSW 6 7 3 4 1021.0 1020.8 0.0
30/06:30am 4.0 0.6 -0.8 71 1.8 S 7 7 4 4 1020.5 1020.3 0.0
30/06:00am 4.5 0.7 -0.5 70 1.9 S 9 11 5 6 1020.1 1019.9 0.0
30/05:30am 4.7 0.9 -0.7 68 2.0 SSE 9 11 5 6 1019.8 1019.6 0.0
30/05:00am 5.0 0.8 -0.6 67 2.1 S 11 13 6 7 1019.5 1019.3 0.0
30/04:30am 5.4 1.2 -0.6 65 2.3 S 11 13 6 7 1019.3 1019.0 0.0
30/04:00am 5.6 1.4 -0.9 63 2.4 S 11 15 6 8 1019.1 1018.8 0.0
30/03:30am 4.9 0.7 -1.1 65 2.2 S 11 13 6 7 1019.1 1018.8 0.0
30/03:00am 4.8 0.9 -1.6 63 2.3 S 9 11 5 6 1019.1 1018.8 0.0
30/02:30am 5.5 1.2 -1.4 61 2.6 S 11 13 6 7 1019.1 1018.8 0.0
30/02:00am 6.0 1.7 -1.6 58 2.8 SSE 11 13 6 7 1019.2 1018.9 0.0
30/01:30am 6.3 2.0 -1.6 57 3.0 SSE 11 13 6 7 1019.1 1018.8 0.0
30/01:00am 6.3 2.0 -1.8 56 3.0 SSE 11 11 6 6 1019.4 1019.2 0.0
30/12:30am 6.7 2.4 -1.9 54 3.2 SSE 11 11 6 6 1019.6 1019.4 0.0
30/12:00am 7.4 3.4 -2.1 51 3.5 SSE 9 11 5 6 1019.9 1019.7 0.0
 
Date/Time
EST
Temp
°C
App
Temp
°C
Dew
Point
°C
Rel
Hum
%
Delta-T
°C
Wind Press
QNH
hPa
Press
MSL
hPa
Rain since
9am
mm
Dir  Spd
km/h
Gust
km/h
Spd
kts
Gust
kts
29/11:30pm 8.7 4.0 -2.0 47 4.1 SSE 13 15 7 8 1020.3 1020.1 0.0
29/11:00pm 8.7 4.0 -2.0 47 4.1 SSE 13 15 7 8 1020.4 1020.2 0.0
29/10:30pm 8.6 4.2 -2.1 47 4.1 SSE 11 13 6 7 1020.4 1020.2 0.0
29/10:00pm 10.0 5.2 -2.3 42 4.7 SSE 13 15 7 8 1020.1 1019.9 0.0
29/09:30pm 10.9 6.2 -2.1 40 5.1 SSE 13 13 7 7 1020.2 1020.0 0.0
29/09:00pm 12.1 7.0 -1.8 38 5.5 SSE 15 15 8 8 1020.2 1020.0 0.0
29/08:30pm 12.3 7.5 -2.3 36 5.7 SSE 13 15 7 8 1020.0 1019.8 0.0
29/08:00pm 13.9 9.2 -2.1 33 6.4 SSE 13 15 7 8 1019.6 1019.4 0.0
29/07:30pm 15.2 10.1 -1.8 31 7.0 SSE 15 15 8 8 1019.3 1019.0 0.0
29/07:00pm 16.0 10.9 -2.0 29 7.4 SSE 15 17 8 9 1018.9 1018.6 0.0
29/06:30pm 17.1 11.9 -3.1 25 8.2 SSE 15 17 8 9 1018.6 1018.3 0.0
29/06:00pm 21.1 16.1 -4.1 18 10.4 SE 13 15 7 8 1018.5 1018.2 0.0
29/05:30pm 24.3 18.5 -4.9 14 12.3 SE 17 22 9 12 1018.4 1018.1 0.0
29/05:00pm 25.5 19.6 -6.0 12 13.1 SE 17 20 9 11 1018.2 1017.9 0.0
29/04:30pm 26.2 20.2 -6.5 11 13.6 SE 17 24 9 13 1018.1 1017.8 0.0
29/04:00pm 26.7 21.6 -5.0 12 13.5 SE 13 22 7 12 1018.0 1017.7 0.0
29/03:30pm 26.2 20.7 -5.4 12 13.4 SE 15 22 8 12 1018.1 1017.8 0.0
29/03:00pm 26.3 21.7 -4.3 13 13.2 ESE 11 19 6 10 1018.3 1018.0 0.0
29/02:30pm 26.1 21.6 -3.5 14 13.0 ESE 11 19 6 10 1018.6 1018.3 0.0
29/02:00pm 24.8 19.9 -3.6 15 12.2 SE 13 19 7 10 1018.9 1018.6 0.0
29/01:30pm 23.8 19.5 -1.9 18 11.4 SE 11 22 6 12 1019.6 1019.4 0.0
29/01:00pm 23.7 18.7 -1.3 19 11.1 ESE 15 20 8 11 1020.2 1020.0 0.0
29/12:30pm 22.6 17.3 -0.8 21 10.5 ESE 17 24 9 13 1021.0 1020.8 0.0
29/12:00pm 21.7 15.9 -0.3 23 9.8 ESE 20 30 11 16 1021.6 1021.4 0.0
29/11:30am 20.4 14.7 0.8 27 8.9 ESE 20 30 11 16 1022.1 1021.9 0.0
29/11:00am 19.4 13.1 1.4 30 8.2 ESE 24 32 13 17 1022.6 1022.3 0.0
29/10:30am 18.0 10.8 0.6 31 7.7 ESE 28 37 15 20 1022.9 1022.6 0.0
29/10:00am 17.0 9.4 0.6 33 7.2 ESE 30 39 16 21 1023.1 1022.8 0.0
29/09:30am 15.9 9.8 2.7 41 6.0 ESE 24 33 13 18 1023.2 1022.9 0.0
29/09:00am 12.5 6.0 2.9 52 4.2 ESE 26 33 14 18 1023.3 1023.0 0.0
29/08:30am 10.7 4.6 2.8 58 3.4 SE 24 32 13 17 1023.2 1022.9 0.0
29/08:00am 8.5 3.1 2.3 65 2.6 SE 20 26 11 14 1022.9 1022.6 0.0
29/07:30am 7.1 1.8 2.0 70 2.1 SE 19 24 10 13 1022.8 1022.5 0.0
29/07:00am 7.0 1.7 1.9 70 2.1 SE 19 26 10 14 1022.6 1022.3 0.0
29/06:30am 7.0 1.5 1.9 70 2.1 SE 20 26 11 14 1022.3 1022.1 0.0
29/06:00am 7.0 1.5 1.9 70 2.1 SE 20 26 11 14 1022.3 1022.1 0.0
29/05:30am 7.1 1.8 1.8 69 2.2 SE 19 20 10 11 1022.1 1021.9 0.0
29/05:00am 7.3 2.7 1.8 68 2.2 SE 15 19 8 10 1022.2 1022.0 0.0
29/04:30am 7.8 3.3 1.9 66 2.4 SE 15 20 8 11 1022.2 1022.0 0.0
29/04:00am 8.3 3.4 1.9 64 2.6 SE 17 22 9 12 1022.2 1022.0 0.0
29/03:30am 8.8 3.5 1.7 61 3.0 SE 19 26 10 14 1022.3 1022.1 0.0
29/03:00am 9.3 3.8 1.9 60 3.1 SE 20 24 11 13 1022.6 1022.3 0.0
29/02:30am 9.6 4.1 2.0 59 3.2 SE 20 26 11 14 1022.8 1022.5 0.0
29/02:00am 10.0 4.1 1.9 57 3.4 SE 22 32 12 17 1023.0 1022.7 0.0
29/01:30am 10.6 5.1 1.9 55 3.7 SE 20 28 11 15 1023.2 1022.9 0.0
29/01:00am 11.2 4.9 1.7 52 4.0 SE 24 32 13 17 1023.1 1022.8 0.0
29/12:30am 11.4 5.2 1.9 52 4.1 SE 24 32 13 17 1023.2 1022.9 0.0
29/12:00am 11.6 5.3 1.5 50 4.3 SE 24 35 13 19 1023.4 1023.1 0.0
 
Date/Time
EST
Temp
°C
App
Temp
°C
Dew
Point
°C
Rel
Hum
%
Delta-T
°C
Wind Press
QNH
hPa
Press
MSL
hPa
Rain since
9am
mm
Dir  Spd
km/h
Gust
km/h
Spd
kts
Gust
kts
28/11:30pm 11.5 6.0 1.7 51 4.2 SE 20 28 11 15 1023.7 1023.4 0.0
28/11:00pm 11.6 5.7 1.8 51 4.2 SE 22 28 12 15 1023.8 1023.5 0.0
28/10:30pm 11.8 6.3 1.7 50 4.3 SE 20 26 11 14 1023.8 1023.5 0.0
28/10:00pm 11.9 6.3 1.5 49 4.4 SSE 20 24 11 13 1023.8 1023.5 0.0
28/09:30pm 11.1 6.1 1.1 50 4.2 SSE 17 19 9 10 1023.8 1023.5 0.0
28/09:00pm 10.9 6.1 0.3 48 4.3 SSE 15 17 8 9 1023.7 1023.4 0.0
28/08:30pm 12.9 7.5 1.0 44 5.1 SSE 19 22 10 12 1023.5 1023.2 0.0
28/08:00pm 13.3 8.2 0.7 42 5.3 SSE 17 19 9 10 1023.2 1022.9 0.0
28/07:30pm 14.2 9.1 0.5 39 5.8 SE 17 22 9 12 1022.8 1022.5 0.0
28/07:00pm 15.3 10.1 0.3 36 6.4 SE 17 20 9 11 1022.6 1022.3 0.0
28/06:30pm 16.3 11.1 0.0 33 7.0 SE 17 22 9 12 1022.3 1022.1 0.0
28/06:00pm 18.0 12.2 0.2 30 7.8 SE 20 28 11 15 1022.0 1021.8 0.0
28/05:30pm 19.5 12.6 0.0 27 8.6 SE 26 35 14 19 1021.6 1021.4 0.0
28/05:00pm 20.1 12.8 0.0 26 8.9 SE 28 37 15 20 1021.5 1021.3 0.0
28/04:30pm 20.6 13.3 -0.1 25 9.2 SE 28 39 15 21 1021.4 1021.2 0.0
28/04:00pm 21.0 14.1 0.2 25 9.3 SE 26 35 14 19 1021.3 1021.1 0.0
28/03:30pm 21.3 14.5 1.0 26 9.3 SE 26 37 14 20 1021.4 1021.2 0.0
28/03:00pm 21.3 14.6 1.6 27 9.1 SE 26 37 14 20 1021.5 1021.3 0.0
28/02:30pm 20.6 14.0 2.0 29 8.6 SE 26 37 14 20 1021.8 1021.6 0.0
28/02:00pm 20.1 13.6 2.5 31 8.2 SE 26 35 14 19 1022.0 1021.8 0.0
28/01:30pm 19.1 12.3 2.9 34 7.6 SE 28 37 15 20 1022.6 1022.3 0.0
28/01:00pm 18.5 12.0 2.8 35 7.3 SE 26 33 14 18 1023.1 1022.8 0.0
28/12:30pm 17.5 10.3 3.0 38 6.7 SE 30 39 16 21 1023.6 1023.3 0.0
28/12:00pm 17.0 10.0 4.0 42 6.1 SE 30 41 16 22 1024.0 1023.7 0.0
28/11:30am 16.1 8.9 5.1 48 5.3 SE 32 41 17 22 1024.3 1024.0 0.0
28/11:00am 15.6 8.4 5.2 50 4.9 SE 32 39 17 21 1024.7 1024.4 0.0
28/10:30am 14.3 6.9 4.9 53 4.4 ESE 33 43 18 23 1024.9 1024.6 0.0
28/10:00am 13.4 6.0 5.1 57 3.9 ESE 33 44 18 24 1025.1 1024.8 0.0
28/09:30am 12.6 5.2 4.8 59 3.6 SE 33 43 18 23 1025.0 1024.7 0.0
28/09:00am 11.7 4.5 4.9 63 3.1 SE 32 41 17 22 1024.9 1024.6 0.0
28/08:30am 10.5 4.0 4.9 68 2.5 SE 28 37 15 20 1024.5 1024.2 0.0
28/08:00am 9.1 3.3 4.5 73 2.0 SE 24 33 13 18 1024.0 1023.7 0.0
28/07:30am 8.3 2.5 4.3 76 1.8 SSE 24 30 13 16 1023.6 1023.3 0.0

Other Formats:

Comma delimited format used in spreadsheet applications
http://www.bom.gov.au/fwo/IDQ60801/IDQ60801.94337.axf

JavaScript Object Notation format (JSON) in row-major order
http://www.bom.gov.au/fwo/IDQ60801/IDQ60801.94337.json